Impacts METAR Board
IDs:

KMIA - Miami Intl, FL, US

Updated at: 2300 UTC 01 Mar 2021
Potential Impact None Slight Moderate High
Time 01/11Z 01/12Z 01/13Z 01/14Z 01/15Z 01/16Z 01/17Z 01/18Z 01/19Z 01/20Z 01/21Z 01/22Z 01/23Z
Temp75 75 77 79 80 82 83 83 83 83 82 81 79
Dewpt70 69 70 70 70 71 71 70 70 70 70 71 70
Altim30.07 30.09 30.11 30.12 30.13 30.13 30.12 30.09 30.06 30.05 30.04 30.04 30.05
VIS10 10 10 10 10 10 10 10 10 10 10 10 10
CIG-- -- 30 35 37 45 47 -- -- -- -- -- --
CoverFEWSCTBKNBKNBKNBKNBKNSCTSCTSCTSCTSCTFEW
FltCatVFRVFRMVFRVFRVFRVFRVFRVFRVFRVFRVFRVFRVFR
WX--------------------------
WDir140140150150140140170170130120130130140
WSpd7 6 6 9 9 12 8 9 12 10 10 9 11
WGst-- -- -- -- -- 17 -- 15 17 -- 19 -- --
Raw hourly METARs
KMIA 011053Z 14007KT 10SM FEW019 FEW030 24/21 A3007 RMK AO2 SLP183 T02390211 $
KMIA 011153Z 14006KT 10SM SCT027 24/21 A3009 RMK AO2 SLP190 T02390206 10250 20239 53006 $
KMIA 011253Z 15006KT 10SM FEW021 BKN030 25/21 A3011 RMK AO2 SLP196 T02500211 $
KMIA 011353Z 15009KT 10SM FEW021 BKN035 26/21 A3012 RMK AO2 SLP200 T02610211
KMIA 011453Z 14009KT 10SM SCT021 SCT027 BKN037 27/21 A3013 RMK AO2 SLP202 T02670211 51013
KMIA 011553Z 14012G17KT 10SM SCT024 SCT030 BKN045 28/22 A3013 RMK AO2 SLP202 T02780217
KMIA 011653Z 17008KT 10SM FEW024 SCT036 BKN047 28/22 A3012 RMK AO2 SLP200 T02830217
KMIA 011753Z 17009G15KT 120V190 10SM SCT030 SCT043 28/21 A3009 RMK AO2 SLP189 T02830211 10289 20239 58014
KMIA 011853Z 13012G17KT 10SM SCT032 SCT040 28/21 A3006 RMK AO2 SLP179 T02830211
KMIA 011953Z 12010KT 10SM SCT030 SCT043 28/21 A3005 RMK AO2 SLP174 T02830211
KMIA 012053Z 13010G19KT 10SM SCT026 SCT250 28/21 A3004 RMK AO2 SLP171 T02780211 56017
KMIA 012153Z 13009KT 10SM SCT021 SCT250 27/22 A3004 RMK AO2 SLP173 T02720217
KMIA 012253Z 14011KT 10SM FEW021 FEW250 26/21 A3005 RMK AO2 SLP174 T02610211



Page loaded:  23:30 UTC  |   03:30 PM Pacific  |   04:30 PM Mountain  |   05:30 PM Central  |   06:30 PM Eastern

 

ADVISORIES

FORECASTS

FORECASTS

OBSERVATIONS

USER TOOLS

ABOUT US